Skip Navigation LinksHome page > Weather > Current weather Skip Navigation Links

Current Weather

Moundou, Chad

For information only: do not use for flight planning or navigation.
Latest weather
Observation time Monday, December 5, 2016 8:00 AM WAT
Local time Monday, December 5, 2016 9:24 AM WAT
Flight conditions Marginal Visual Meteorological Conditions
Winds
Wind direction Southwest (220°)
Wind speed 7 mph
Visibility 3.7 mi.
Sky condition
Ceiling unlimited
Temperature 72°F
Dewpoint 59°F
Altimeter 29.94 in.Hg
Derived measurements
Relative humidity 65%
Density altitude 1453 ft.
METAR FTTD 050700Z 22006KT 6000 NSC 22/15 Q1014

Settings

Location code

InnerDrive.Weather 4.0.6144.1 Release CLR 4.0.30319.34209
Copyright ©2015 Inner Drive Technology. All rights reserved. Portions Copyright ©1986-2015 David Braverman.

Find weather

Site navigation


Skip Navigation Links

Place info

Page info

PayPal - The safer, easier way to pay online!

Return home.

Copyright ©2016 Inner Drive Technology. Purveyors of fine, hand-crafted computer software. Page printed 2016-12-05T08:24:53 UTC.